sensor_id;sensor_type;location;lat;lon;timestamp;P1;durP1;ratioP1;P2;durP2;ratioP2
71265;SDS011;59030;52.052;8.550;2022-08-19T00:01:13;8.90;;;6.03;;
71265;SDS011;59030;52.052;8.550;2022-08-19T00:03:40;7.83;;;5.63;;
71265;SDS011;59030;52.052;8.550;2022-08-19T00:06:08;12.43;;;6.53;;
71265;SDS011;59030;52.052;8.550;2022-08-19T00:08:35;10.97;;;5.80;;
71265;SDS011;59030;52.052;8.550;2022-08-19T00:11:05;7.87;;;5.50;;
71265;SDS011;59030;52.052;8.550;2022-08-19T00:13:33;5.63;;;5.13;;
71265;SDS011;59030;52.052;8.550;2022-08-19T00:16:00;6.27;;;5.63;;
71265;SDS011;59030;52.052;8.550;2022-08-19T00:18:27;8.50;;;6.17;;
71265;SDS011;59030;52.052;8.550;2022-08-19T00:20:55;8.73;;;5.87;;
71265;SDS011;59030;52.052;8.550;2022-08-19T00:23:22;9.63;;;5.77;;
71265;SDS011;59030;52.052;8.550;2022-08-19T00:25:50;8.20;;;5.70;;
71265;SDS011;59030;52.052;8.550;2022-08-19T00:28:18;10.00;;;6.90;;
71265;SDS011;59030;52.052;8.550;2022-08-19T00:30:46;8.30;;;6.30;;
71265;SDS011;59030;52.052;8.550;2022-08-19T00:33:13;8.70;;;6.17;;
71265;SDS011;59030;52.052;8.550;2022-08-19T00:35:42;6.53;;;5.80;;
71265;SDS011;59030;52.052;8.550;2022-08-19T00:38:09;8.87;;;6.20;;
71265;SDS011;59030;52.052;8.550;2022-08-19T00:40:37;7.53;;;5.87;;
71265;SDS011;59030;52.052;8.550;2022-08-19T00:43:08;9.93;;;6.57;;
71265;SDS011;59030;52.052;8.550;2022-08-19T00:45:36;8.63;;;6.23;;
71265;SDS011;59030;52.052;8.550;2022-08-19T00:48:03;8.93;;;6.80;;
71265;SDS011;59030;52.052;8.550;2022-08-19T00:50:31;10.80;;;6.83;;
71265;SDS011;59030;52.052;8.550;2022-08-19T00:52:58;10.03;;;6.80;;
71265;SDS011;59030;52.052;8.550;2022-08-19T00:55:26;9.87;;;7.30;;
71265;SDS011;59030;52.052;8.550;2022-08-19T00:57:56;12.47;;;7.27;;
71265;SDS011;59030;52.052;8.550;2022-08-19T01:00:25;11.57;;;7.40;;
71265;SDS011;59030;52.052;8.550;2022-08-19T01:02:52;10.13;;;7.23;;
71265;SDS011;59030;52.052;8.550;2022-08-19T01:05:21;9.30;;;7.10;;
71265;SDS011;59030;52.052;8.550;2022-08-19T01:07:49;11.20;;;7.97;;
71265;SDS011;59030;52.052;8.550;2022-08-19T01:10:17;8.37;;;7.37;;
71265;SDS011;59030;52.052;8.550;2022-08-19T01:12:46;11.23;;;7.70;;
71265;SDS011;59030;52.052;8.550;2022-08-19T01:15:14;10.63;;;7.57;;
71265;SDS011;59030;52.052;8.550;2022-08-19T01:17:42;9.83;;;7.87;;
71265;SDS011;59030;52.052;8.550;2022-08-19T01:20:10;7.63;;;6.80;;
71265;SDS011;59030;52.052;8.550;2022-08-19T01:22:38;9.57;;;7.20;;
71265;SDS011;59030;52.052;8.550;2022-08-19T01:25:07;10.27;;;7.00;;
71265;SDS011;59030;52.052;8.550;2022-08-19T01:27:38;9.17;;;7.47;;
71265;SDS011;59030;52.052;8.550;2022-08-19T01:30:07;11.43;;;7.63;;
71265;SDS011;59030;52.052;8.550;2022-08-19T01:32:34;9.20;;;7.27;;
71265;SDS011;59030;52.052;8.550;2022-08-19T01:35:02;10.33;;;7.53;;
71265;SDS011;59030;52.052;8.550;2022-08-19T01:37:40;10.93;;;7.00;;
71265;SDS011;59030;52.052;8.550;2022-08-19T01:39:58;8.93;;;6.70;;
71265;SDS011;59030;52.052;8.550;2022-08-19T01:42:26;7.43;;;6.60;;
71265;SDS011;59030;52.052;8.550;2022-08-19T01:44:53;9.10;;;7.03;;
71265;SDS011;59030;52.052;8.550;2022-08-19T01:47:20;10.10;;;7.30;;
71265;SDS011;59030;52.052;8.550;2022-08-19T01:49:48;9.53;;;7.27;;
71265;SDS011;59030;52.052;8.550;2022-08-19T01:52:15;7.90;;;7.10;;
71265;SDS011;59030;52.052;8.550;2022-08-19T01:54:42;9.10;;;7.03;;
71265;SDS011;59030;52.052;8.550;2022-08-19T01:57:10;10.23;;;7.90;;
71265;SDS011;59030;52.052;8.550;2022-08-19T01:59:38;9.97;;;7.13;;
71265;SDS011;59030;52.052;8.550;2022-08-19T02:02:06;9.57;;;8.00;;
71265;SDS011;59030;52.052;8.550;2022-08-19T02:04:34;10.47;;;8.13;;
71265;SDS011;59030;52.052;8.550;2022-08-19T02:07:01;11.37;;;7.93;;
71265;SDS011;59030;52.052;8.550;2022-08-19T02:09:29;12.57;;;7.80;;
71265;SDS011;59030;52.052;8.550;2022-08-19T02:11:57;13.97;;;8.27;;
71265;SDS011;59030;52.052;8.550;2022-08-19T02:14:24;10.10;;;7.80;;
71265;SDS011;59030;52.052;8.550;2022-08-19T02:16:52;12.80;;;8.13;;
71265;SDS011;59030;52.052;8.550;2022-08-19T02:19:19;13.97;;;9.17;;
71265;SDS011;59030;52.052;8.550;2022-08-19T02:21:47;12.50;;;8.87;;
71265;SDS011;59030;52.052;8.550;2022-08-19T02:24:15;11.37;;;8.37;;
71265;SDS011;59030;52.052;8.550;2022-08-19T02:26:42;11.70;;;8.80;;
71265;SDS011;59030;52.052;8.550;2022-08-19T02:29:09;10.80;;;8.93;;
71265;SDS011;59030;52.052;8.550;2022-08-19T02:31:37;11.97;;;9.00;;
71265;SDS011;59030;52.052;8.550;2022-08-19T02:34:04;12.47;;;9.20;;
71265;SDS011;59030;52.052;8.550;2022-08-19T02:36:31;12.83;;;8.90;;
71265;SDS011;59030;52.052;8.550;2022-08-19T02:38:59;12.67;;;8.50;;
71265;SDS011;59030;52.052;8.550;2022-08-19T02:41:27;11.07;;;8.93;;
71265;SDS011;59030;52.052;8.550;2022-08-19T02:43:55;12.83;;;9.20;;
71265;SDS011;59030;52.052;8.550;2022-08-19T02:46:24;13.30;;;9.43;;
71265;SDS011;59030;52.052;8.550;2022-08-19T02:48:54;12.90;;;9.30;;
71265;SDS011;59030;52.052;8.550;2022-08-19T02:51:24;12.13;;;9.70;;
71265;SDS011;59030;52.052;8.550;2022-08-19T02:53:50;13.27;;;9.90;;
71265;SDS011;59030;52.052;8.550;2022-08-19T02:56:18;13.20;;;9.30;;
71265;SDS011;59030;52.052;8.550;2022-08-19T02:58:46;12.40;;;9.17;;
71265;SDS011;59030;52.052;8.550;2022-08-19T03:01:19;12.90;;;10.10;;
71265;SDS011;59030;52.052;8.550;2022-08-19T03:03:48;14.60;;;9.60;;
71265;SDS011;59030;52.052;8.550;2022-08-19T03:06:15;13.00;;;9.70;;
71265;SDS011;59030;52.052;8.550;2022-08-19T03:08:43;13.07;;;10.07;;
71265;SDS011;59030;52.052;8.550;2022-08-19T03:11:15;11.93;;;9.50;;
71265;SDS011;59030;52.052;8.550;2022-08-19T03:13:43;14.57;;;10.43;;
71265;SDS011;59030;52.052;8.550;2022-08-19T03:16:11;14.17;;;10.37;;
71265;SDS011;59030;52.052;8.550;2022-08-19T03:18:39;12.80;;;10.13;;
71265;SDS011;59030;52.052;8.550;2022-08-19T03:21:06;13.10;;;10.10;;
71265;SDS011;59030;52.052;8.550;2022-08-19T03:23:34;16.00;;;10.90;;
71265;SDS011;59030;52.052;8.550;2022-08-19T03:26:03;16.40;;;11.13;;
71265;SDS011;59030;52.052;8.550;2022-08-19T03:28:32;14.83;;;10.83;;
71265;SDS011;59030;52.052;8.550;2022-08-19T03:31:00;12.90;;;9.87;;
71265;SDS011;59030;52.052;8.550;2022-08-19T03:33:28;13.97;;;10.93;;
71265;SDS011;59030;52.052;8.550;2022-08-19T03:36:05;16.07;;;11.53;;
71265;SDS011;59030;52.052;8.550;2022-08-19T03:38:34;16.10;;;10.70;;
71265;SDS011;59030;52.052;8.550;2022-08-19T03:41:06;13.03;;;10.43;;
71265;SDS011;59030;52.052;8.550;2022-08-19T03:43:35;13.87;;;11.17;;
71265;SDS011;59030;52.052;8.550;2022-08-19T03:46:03;13.97;;;10.40;;
71265;SDS011;59030;52.052;8.550;2022-08-19T03:48:31;17.10;;;11.60;;
71265;SDS011;59030;52.052;8.550;2022-08-19T03:50:59;17.83;;;11.57;;
71265;SDS011;59030;52.052;8.550;2022-08-19T03:53:27;19.27;;;11.97;;
71265;SDS011;59030;52.052;8.550;2022-08-19T03:55:55;17.27;;;11.60;;
71265;SDS011;59030;52.052;8.550;2022-08-19T03:58:23;14.47;;;11.27;;
71265;SDS011;59030;52.052;8.550;2022-08-19T04:00:51;15.40;;;12.13;;
71265;SDS011;59030;52.052;8.550;2022-08-19T04:03:18;16.70;;;12.17;;
71265;SDS011;59030;52.052;8.550;2022-08-19T04:05:46;18.67;;;11.83;;
71265;SDS011;59030;52.052;8.550;2022-08-19T04:08:14;16.50;;;11.70;;
71265;SDS011;59030;52.052;8.550;2022-08-19T04:10:43;16.10;;;11.83;;
71265;SDS011;59030;52.052;8.550;2022-08-19T04:13:10;16.27;;;11.57;;
71265;SDS011;59030;52.052;8.550;2022-08-19T04:15:39;16.77;;;12.40;;
71265;SDS011;59030;52.052;8.550;2022-08-19T04:18:07;14.50;;;11.30;;
71265;SDS011;59030;52.052;8.550;2022-08-19T04:20:39;15.40;;;11.70;;
71265;SDS011;59030;52.052;8.550;2022-08-19T04:23:07;16.17;;;11.53;;
71265;SDS011;59030;52.052;8.550;2022-08-19T04:25:35;18.43;;;11.90;;
71265;SDS011;59030;52.052;8.550;2022-08-19T04:28:03;16.70;;;11.93;;
71265;SDS011;59030;52.052;8.550;2022-08-19T04:30:30;16.30;;;11.93;;
71265;SDS011;59030;52.052;8.550;2022-08-19T04:32:58;16.67;;;11.80;;
71265;SDS011;59030;52.052;8.550;2022-08-19T04:35:26;16.80;;;12.07;;
71265;SDS011;59030;52.052;8.550;2022-08-19T04:37:53;16.20;;;11.87;;
71265;SDS011;59030;52.052;8.550;2022-08-19T04:40:21;16.17;;;12.10;;
71265;SDS011;59030;52.052;8.550;2022-08-19T04:43:06;16.87;;;12.60;;
71265;SDS011;59030;52.052;8.550;2022-08-19T04:45:35;15.40;;;12.43;;
71265;SDS011;59030;52.052;8.550;2022-08-19T04:48:03;14.77;;;11.50;;
71265;SDS011;59030;52.052;8.550;2022-08-19T04:50:31;15.80;;;12.10;;
71265;SDS011;59030;52.052;8.550;2022-08-19T04:52:58;18.03;;;12.67;;
71265;SDS011;59030;52.052;8.550;2022-08-19T04:55:26;18.67;;;13.70;;
71265;SDS011;59030;52.052;8.550;2022-08-19T04:57:53;16.47;;;12.30;;
71265;SDS011;59030;52.052;8.550;2022-08-19T05:00:21;17.03;;;12.10;;
71265;SDS011;59030;52.052;8.550;2022-08-19T05:02:48;15.67;;;11.53;;
71265;SDS011;59030;52.052;8.550;2022-08-19T05:05:16;17.70;;;12.40;;
71265;SDS011;59030;52.052;8.550;2022-08-19T05:07:43;18.27;;;11.70;;
71265;SDS011;59030;52.052;8.550;2022-08-19T05:10:11;18.27;;;11.60;;
71265;SDS011;59030;52.052;8.550;2022-08-19T05:12:38;15.37;;;11.53;;
71265;SDS011;59030;52.052;8.550;2022-08-19T05:15:07;15.37;;;10.97;;
71265;SDS011;59030;52.052;8.550;2022-08-19T05:17:35;14.13;;;10.70;;
71265;SDS011;59030;52.052;8.550;2022-08-19T05:20:04;15.67;;;10.80;;
71265;SDS011;59030;52.052;8.550;2022-08-19T05:22:50;15.80;;;10.47;;
71265;SDS011;59030;52.052;8.550;2022-08-19T05:25:18;13.53;;;10.10;;
71265;SDS011;59030;52.052;8.550;2022-08-19T05:27:47;13.20;;;9.97;;
71265;SDS011;59030;52.052;8.550;2022-08-19T05:30:15;16.40;;;10.80;;
71265;SDS011;59030;52.052;8.550;2022-08-19T05:32:43;15.47;;;10.90;;
71265;SDS011;59030;52.052;8.550;2022-08-19T05:35:11;14.87;;;10.00;;
71265;SDS011;59030;52.052;8.550;2022-08-19T05:37:38;13.50;;;9.93;;
71265;SDS011;59030;52.052;8.550;2022-08-19T05:40:07;16.47;;;10.27;;
71265;SDS011;59030;52.052;8.550;2022-08-19T05:42:35;11.70;;;9.87;;
71265;SDS011;59030;52.052;8.550;2022-08-19T05:45:03;13.80;;;10.40;;
71265;SDS011;59030;52.052;8.550;2022-08-19T05:47:31;13.57;;;10.30;;
71265;SDS011;59030;52.052;8.550;2022-08-19T05:49:58;15.53;;;10.67;;
71265;SDS011;59030;52.052;8.550;2022-08-19T05:52:27;11.80;;;9.77;;
71265;SDS011;59030;52.052;8.550;2022-08-19T05:54:55;12.77;;;9.80;;
71265;SDS011;59030;52.052;8.550;2022-08-19T05:57:22;13.37;;;10.13;;
71265;SDS011;59030;52.052;8.550;2022-08-19T05:59:50;11.93;;;9.93;;
71265;SDS011;59030;52.052;8.550;2022-08-19T06:02:17;12.00;;;9.83;;
71265;SDS011;59030;52.052;8.550;2022-08-19T06:04:45;13.13;;;10.20;;
71265;SDS011;59030;52.052;8.550;2022-08-19T06:07:12;12.00;;;10.33;;
71265;SDS011;59030;52.052;8.550;2022-08-19T06:09:42;13.77;;;9.43;;
71265;SDS011;59030;52.052;8.550;2022-08-19T06:12:11;15.00;;;10.43;;
71265;SDS011;59030;52.052;8.550;2022-08-19T06:14:39;12.70;;;9.77;;
71265;SDS011;59030;52.052;8.550;2022-08-19T06:17:07;14.63;;;10.80;;
71265;SDS011;59030;52.052;8.550;2022-08-19T06:19:34;11.93;;;9.27;;
71265;SDS011;59030;52.052;8.550;2022-08-19T06:22:03;11.73;;;9.70;;
71265;SDS011;59030;52.052;8.550;2022-08-19T06:24:31;11.33;;;9.23;;
71265;SDS011;59030;52.052;8.550;2022-08-19T06:26:59;11.70;;;9.60;;
71265;SDS011;59030;52.052;8.550;2022-08-19T06:29:27;12.03;;;9.00;;
71265;SDS011;59030;52.052;8.550;2022-08-19T06:31:56;15.27;;;9.43;;
71265;SDS011;59030;52.052;8.550;2022-08-19T06:34:24;12.00;;;8.77;;
71265;SDS011;59030;52.052;8.550;2022-08-19T06:36:53;11.80;;;8.70;;
71265;SDS011;59030;52.052;8.550;2022-08-19T06:39:21;11.70;;;8.20;;
71265;SDS011;59030;52.052;8.550;2022-08-19T06:41:51;12.73;;;8.10;;
71265;SDS011;59030;52.052;8.550;2022-08-19T06:44:19;9.77;;;8.00;;
71265;SDS011;59030;52.052;8.550;2022-08-19T06:46:46;10.43;;;7.80;;
71265;SDS011;59030;52.052;8.550;2022-08-19T06:49:14;10.10;;;7.90;;
71265;SDS011;59030;52.052;8.550;2022-08-19T06:51:42;8.87;;;7.53;;
71265;SDS011;59030;52.052;8.550;2022-08-19T06:54:10;11.50;;;7.60;;
71265;SDS011;59030;52.052;8.550;2022-08-19T06:56:37;11.67;;;6.93;;
71265;SDS011;59030;52.052;8.550;2022-08-19T06:59:06;12.63;;;8.10;;
71265;SDS011;59030;52.052;8.550;2022-08-19T07:01:38;10.73;;;8.33;;
71265;SDS011;59030;52.052;8.550;2022-08-19T07:04:06;8.90;;;7.07;;
71265;SDS011;59030;52.052;8.550;2022-08-19T07:06:34;10.07;;;7.27;;
71265;SDS011;59030;52.052;8.550;2022-08-19T07:09:02;8.33;;;7.00;;
71265;SDS011;59030;52.052;8.550;2022-08-19T07:11:30;10.53;;;8.10;;
71265;SDS011;59030;52.052;8.550;2022-08-19T07:13:58;10.50;;;8.20;;
71265;SDS011;59030;52.052;8.550;2022-08-19T07:16:25;10.93;;;8.43;;
71265;SDS011;59030;52.052;8.550;2022-08-19T07:18:53;9.50;;;7.37;;
71265;SDS011;59030;52.052;8.550;2022-08-19T07:21:22;11.17;;;8.20;;
71265;SDS011;59030;52.052;8.550;2022-08-19T07:23:52;10.37;;;7.70;;
71265;SDS011;59030;52.052;8.550;2022-08-19T07:26:20;10.97;;;8.13;;
71265;SDS011;59030;52.052;8.550;2022-08-19T07:28:48;9.87;;;8.07;;
71265;SDS011;59030;52.052;8.550;2022-08-19T07:31:16;9.47;;;7.70;;
71265;SDS011;59030;52.052;8.550;2022-08-19T07:33:45;9.47;;;6.83;;
71265;SDS011;59030;52.052;8.550;2022-08-19T07:36:13;9.93;;;8.17;;
71265;SDS011;59030;52.052;8.550;2022-08-19T07:38:42;7.90;;;6.60;;
71265;SDS011;59030;52.052;8.550;2022-08-19T07:41:10;10.93;;;7.50;;
71265;SDS011;59030;52.052;8.550;2022-08-19T07:43:38;9.30;;;7.50;;
71265;SDS011;59030;52.052;8.550;2022-08-19T07:46:06;10.83;;;7.03;;
71265;SDS011;59030;52.052;8.550;2022-08-19T07:48:36;11.43;;;7.03;;
71265;SDS011;59030;52.052;8.550;2022-08-19T07:51:07;8.43;;;7.40;;
71265;SDS011;59030;52.052;8.550;2022-08-19T07:53:35;9.70;;;7.43;;
71265;SDS011;59030;52.052;8.550;2022-08-19T07:56:03;10.03;;;7.20;;
71265;SDS011;59030;52.052;8.550;2022-08-19T07:58:32;16.00;;;7.63;;
71265;SDS011;59030;52.052;8.550;2022-08-19T08:01:00;10.20;;;6.90;;
71265;SDS011;59030;52.052;8.550;2022-08-19T08:03:28;10.57;;;6.60;;
71265;SDS011;59030;52.052;8.550;2022-08-19T08:06:15;9.87;;;6.60;;
71265;SDS011;59030;52.052;8.550;2022-08-19T08:09:03;6.70;;;6.00;;
71265;SDS011;59030;52.052;8.550;2022-08-19T08:11:37;8.67;;;6.70;;
71265;SDS011;59030;52.052;8.550;2022-08-19T08:14:06;7.73;;;5.87;;
71265;SDS011;59030;52.052;8.550;2022-08-19T08:16:34;8.03;;;7.17;;
71265;SDS011;59030;52.052;8.550;2022-08-19T08:19:03;6.20;;;5.60;;
71265;SDS011;59030;52.052;8.550;2022-08-19T08:21:31;8.33;;;5.67;;
71265;SDS011;59030;52.052;8.550;2022-08-19T08:23:59;8.60;;;5.43;;
71265;SDS011;59030;52.052;8.550;2022-08-19T08:26:27;6.30;;;5.27;;
71265;SDS011;59030;52.052;8.550;2022-08-19T08:28:54;6.63;;;4.80;;
71265;SDS011;59030;52.052;8.550;2022-08-19T08:31:22;7.57;;;5.37;;
71265;SDS011;59030;52.052;8.550;2022-08-19T08:33:50;7.10;;;5.07;;
71265;SDS011;59030;52.052;8.550;2022-08-19T08:36:17;5.90;;;4.57;;
71265;SDS011;59030;52.052;8.550;2022-08-19T08:38:45;6.33;;;4.70;;
71265;SDS011;59030;52.052;8.550;2022-08-19T08:41:15;5.70;;;4.80;;
71265;SDS011;59030;52.052;8.550;2022-08-19T08:43:45;6.00;;;4.90;;
71265;SDS011;59030;52.052;8.550;2022-08-19T08:46:15;6.83;;;4.67;;
71265;SDS011;59030;52.052;8.550;2022-08-19T08:48:46;6.70;;;4.90;;
71265;SDS011;59030;52.052;8.550;2022-08-19T08:51:14;6.07;;;4.60;;
71265;SDS011;59030;52.052;8.550;2022-08-19T08:53:42;5.80;;;4.77;;
71265;SDS011;59030;52.052;8.550;2022-08-19T08:56:11;4.77;;;4.20;;
71265;SDS011;59030;52.052;8.550;2022-08-19T08:58:42;6.13;;;4.10;;
71265;SDS011;59030;52.052;8.550;2022-08-19T09:01:10;5.37;;;4.50;;
71265;SDS011;59030;52.052;8.550;2022-08-19T09:03:38;5.80;;;4.80;;
71265;SDS011;59030;52.052;8.550;2022-08-19T09:06:07;4.27;;;3.90;;
71265;SDS011;59030;52.052;8.550;2022-08-19T09:08:45;7.33;;;4.17;;
71265;SDS011;59030;52.052;8.550;2022-08-19T09:11:14;4.67;;;3.80;;
71265;SDS011;59030;52.052;8.550;2022-08-19T09:13:44;4.47;;;4.03;;
71265;SDS011;59030;52.052;8.550;2022-08-19T09:16:12;3.97;;;3.60;;
71265;SDS011;59030;52.052;8.550;2022-08-19T09:18:41;3.90;;;3.50;;
71265;SDS011;59030;52.052;8.550;2022-08-19T09:21:09;5.60;;;4.10;;
71265;SDS011;59030;52.052;8.550;2022-08-19T09:23:36;5.03;;;4.50;;
71265;SDS011;59030;52.052;8.550;2022-08-19T09:26:07;4.03;;;3.73;;
71265;SDS011;59030;52.052;8.550;2022-08-19T09:28:35;4.67;;;4.27;;
71265;SDS011;59030;52.052;8.550;2022-08-19T09:31:03;5.13;;;3.93;;
71265;SDS011;59030;52.052;8.550;2022-08-19T09:33:31;4.60;;;4.10;;
71265;SDS011;59030;52.052;8.550;2022-08-19T09:36:03;5.80;;;4.20;;
71265;SDS011;59030;52.052;8.550;2022-08-19T09:38:31;4.90;;;4.40;;
71265;SDS011;59030;52.052;8.550;2022-08-19T09:41:02;4.93;;;4.13;;
71265;SDS011;59030;52.052;8.550;2022-08-19T09:43:30;5.13;;;4.53;;
71265;SDS011;59030;52.052;8.550;2022-08-19T09:45:58;4.47;;;4.00;;
71265;SDS011;59030;52.052;8.550;2022-08-19T09:48:26;4.53;;;3.90;;
71265;SDS011;59030;52.052;8.550;2022-08-19T09:50:53;5.70;;;5.20;;
71265;SDS011;59030;52.052;8.550;2022-08-19T09:53:21;5.10;;;4.60;;
71265;SDS011;59030;52.052;8.550;2022-08-19T09:55:49;5.53;;;4.10;;
71265;SDS011;59030;52.052;8.550;2022-08-19T09:58:16;5.03;;;4.50;;
71265;SDS011;59030;52.052;8.550;2022-08-19T10:00:44;6.83;;;4.83;;
71265;SDS011;59030;52.052;8.550;2022-08-19T10:03:12;4.70;;;3.80;;
71265;SDS011;59030;52.052;8.550;2022-08-19T10:05:40;4.47;;;4.08;;
71265;SDS011;59030;52.052;8.550;2022-08-19T10:08:17;5.10;;;4.20;;
71265;SDS011;59030;52.052;8.550;2022-08-19T10:10:44;4.77;;;4.37;;
71265;SDS011;59030;52.052;8.550;2022-08-19T10:13:12;5.37;;;4.20;;
71265;SDS011;59030;52.052;8.550;2022-08-19T10:15:40;4.17;;;3.87;;
71265;SDS011;59030;52.052;8.550;2022-08-19T10:18:08;5.73;;;4.43;;
71265;SDS011;59030;52.052;8.550;2022-08-19T10:20:36;4.90;;;4.00;;
71265;SDS011;59030;52.052;8.550;2022-08-19T10:23:04;4.17;;;3.33;;
71265;SDS011;59030;52.052;8.550;2022-08-19T10:25:32;3.97;;;3.57;;
71265;SDS011;59030;52.052;8.550;2022-08-19T10:28:00;4.50;;;3.33;;
71265;SDS011;59030;52.052;8.550;2022-08-19T10:30:29;2.93;;;2.73;;
71265;SDS011;59030;52.052;8.550;2022-08-19T10:32:56;2.83;;;2.63;;
71265;SDS011;59030;52.052;8.550;2022-08-19T10:35:24;2.93;;;2.67;;
71265;SDS011;59030;52.052;8.550;2022-08-19T10:37:53;3.23;;;2.93;;
71265;SDS011;59030;52.052;8.550;2022-08-19T10:40:22;3.10;;;2.80;;
71265;SDS011;59030;52.052;8.550;2022-08-19T10:42:50;4.13;;;3.40;;
71265;SDS011;59030;52.052;8.550;2022-08-19T10:45:17;3.67;;;3.30;;
71265;SDS011;59030;52.052;8.550;2022-08-19T10:47:47;3.60;;;3.17;;
71265;SDS011;59030;52.052;8.550;2022-08-19T10:50:14;4.50;;;3.57;;
71265;SDS011;59030;52.052;8.550;2022-08-19T10:53:02;3.80;;;3.30;;
71265;SDS011;59030;52.052;8.550;2022-08-19T10:55:28;4.20;;;3.67;;
71265;SDS011;59030;52.052;8.550;2022-08-19T10:58:14;3.47;;;3.07;;
71265;SDS011;59030;52.052;8.550;2022-08-19T11:00:42;3.50;;;3.20;;
71265;SDS011;59030;52.052;8.550;2022-08-19T11:03:10;3.80;;;3.40;;
71265;SDS011;59030;52.052;8.550;2022-08-19T11:05:37;3.90;;;3.50;;
71265;SDS011;59030;52.052;8.550;2022-08-19T11:08:06;4.70;;;2.93;;
71265;SDS011;59030;52.052;8.550;2022-08-19T11:10:35;3.30;;;3.00;;
71265;SDS011;59030;52.052;8.550;2022-08-19T11:13:03;3.37;;;3.10;;
71265;SDS011;59030;52.052;8.550;2022-08-19T11:15:30;3.20;;;2.90;;
71265;SDS011;59030;52.052;8.550;2022-08-19T11:17:59;3.67;;;3.10;;
71265;SDS011;59030;52.052;8.550;2022-08-19T11:20:26;3.50;;;2.90;;
71265;SDS011;59030;52.052;8.550;2022-08-19T11:22:54;3.03;;;2.83;;
71265;SDS011;59030;52.052;8.550;2022-08-19T11:25:21;3.23;;;3.00;;
71265;SDS011;59030;52.052;8.550;2022-08-19T11:27:48;3.83;;;2.90;;
71265;SDS011;59030;52.052;8.550;2022-08-19T11:30:18;3.20;;;2.87;;
71265;SDS011;59030;52.052;8.550;2022-08-19T11:32:45;2.70;;;2.50;;
71265;SDS011;59030;52.052;8.550;2022-08-19T11:35:14;2.80;;;2.60;;
71265;SDS011;59030;52.052;8.550;2022-08-19T11:37:41;3.83;;;3.13;;
71265;SDS011;59030;52.052;8.550;2022-08-19T11:40:10;4.40;;;2.90;;
71265;SDS011;59030;52.052;8.550;2022-08-19T11:42:38;4.00;;;2.87;;
71265;SDS011;59030;52.052;8.550;2022-08-19T11:45:24;3.33;;;3.02;;
71265;SDS011;59030;52.052;8.550;2022-08-19T11:47:52;4.50;;;2.90;;
71265;SDS011;59030;52.052;8.550;2022-08-19T11:50:19;5.07;;;3.13;;
71265;SDS011;59030;52.052;8.550;2022-08-19T11:52:48;3.05;;;2.85;;
71265;SDS011;59030;52.052;8.550;2022-08-19T11:55:17;5.00;;;3.25;;
71265;SDS011;59030;52.052;8.550;2022-08-19T11:57:45;3.30;;;3.00;;
71265;SDS011;59030;52.052;8.550;2022-08-19T12:00:14;3.35;;;3.05;;
71265;SDS011;59030;52.052;8.550;2022-08-19T12:02:41;4.15;;;3.47;;
71265;SDS011;59030;52.052;8.550;2022-08-19T12:05:09;3.90;;;3.05;;
71265;SDS011;59030;52.052;8.550;2022-08-19T12:07:36;3.20;;;2.95;;
71265;SDS011;59030;52.052;8.550;2022-08-19T12:10:04;3.13;;;2.90;;
71265;SDS011;59030;52.052;8.550;2022-08-19T12:12:32;4.10;;;3.30;;
71265;SDS011;59030;52.052;8.550;2022-08-19T12:14:59;3.80;;;3.35;;
71265;SDS011;59030;52.052;8.550;2022-08-19T12:17:26;4.33;;;3.20;;
71265;SDS011;59030;52.052;8.550;2022-08-19T12:19:54;3.75;;;3.35;;
71265;SDS011;59030;52.052;8.550;2022-08-19T12:22:22;3.50;;;3.20;;
71265;SDS011;59030;52.052;8.550;2022-08-19T12:24:49;3.65;;;3.35;;
71265;SDS011;59030;52.052;8.550;2022-08-19T12:27:18;4.07;;;3.27;;
71265;SDS011;59030;52.052;8.550;2022-08-19T12:29:45;5.50;;;3.55;;
71265;SDS011;59030;52.052;8.550;2022-08-19T12:32:13;3.77;;;3.40;;
71265;SDS011;59030;52.052;8.550;2022-08-19T12:34:40;3.50;;;3.23;;
71265;SDS011;59030;52.052;8.550;2022-08-19T12:37:08;4.97;;;3.40;;
71265;SDS011;59030;52.052;8.550;2022-08-19T12:39:38;3.80;;;3.20;;
71265;SDS011;59030;52.052;8.550;2022-08-19T12:42:07;3.77;;;3.30;;
71265;SDS011;59030;52.052;8.550;2022-08-19T12:44:35;4.43;;;3.47;;
71265;SDS011;59030;52.052;8.550;2022-08-19T12:47:02;4.40;;;3.70;;
71265;SDS011;59030;52.052;8.550;2022-08-19T12:49:30;3.60;;;3.30;;
71265;SDS011;59030;52.052;8.550;2022-08-19T12:51:59;3.73;;;3.43;;
71265;SDS011;59030;52.052;8.550;2022-08-19T12:54:27;3.98;;;3.58;;
71265;SDS011;59030;52.052;8.550;2022-08-19T12:56:54;3.80;;;3.40;;
71265;SDS011;59030;52.052;8.550;2022-08-19T12:59:22;3.97;;;3.57;;
71265;SDS011;59030;52.052;8.550;2022-08-19T13:01:49;3.73;;;3.30;;
71265;SDS011;59030;52.052;8.550;2022-08-19T13:04:17;4.07;;;3.53;;
71265;SDS011;59030;52.052;8.550;2022-08-19T13:06:44;4.57;;;3.37;;
71265;SDS011;59030;52.052;8.550;2022-08-19T13:09:12;4.03;;;3.30;;
71265;SDS011;59030;52.052;8.550;2022-08-19T13:11:39;4.77;;;3.33;;
71265;SDS011;59030;52.052;8.550;2022-08-19T13:14:06;4.00;;;3.70;;
71265;SDS011;59030;52.052;8.550;2022-08-19T13:16:34;3.60;;;3.30;;
71265;SDS011;59030;52.052;8.550;2022-08-19T13:19:03;4.00;;;3.60;;
71265;SDS011;59030;52.052;8.550;2022-08-19T13:21:31;4.40;;;4.00;;
71265;SDS011;59030;52.052;8.550;2022-08-19T13:23:58;5.60;;;3.47;;
71265;SDS011;59030;52.052;8.550;2022-08-19T13:26:26;3.60;;;3.30;;
71265;SDS011;59030;52.052;8.550;2022-08-19T13:28:54;4.60;;;3.65;;
71265;SDS011;59030;52.052;8.550;2022-08-19T13:31:40;4.15;;;3.67;;
71265;SDS011;59030;52.052;8.550;2022-08-19T13:34:27;3.72;;;3.40;;
71265;SDS011;59030;52.052;8.550;2022-08-19T13:36:55;4.50;;;3.90;;
71265;SDS011;59030;52.052;8.550;2022-08-19T13:39:23;4.20;;;3.80;;
71265;SDS011;59030;52.052;8.550;2022-08-19T13:41:50;4.70;;;3.62;;
71265;SDS011;59030;52.052;8.550;2022-08-19T13:44:19;4.60;;;3.12;;
71265;SDS011;59030;52.052;8.550;2022-08-19T13:46:47;3.90;;;3.55;;
71265;SDS011;59030;52.052;8.550;2022-08-19T13:49:16;3.80;;;3.50;;
71265;SDS011;59030;52.052;8.550;2022-08-19T13:51:44;3.40;;;3.10;;
71265;SDS011;59030;52.052;8.550;2022-08-19T13:54:11;3.60;;;3.30;;
71265;SDS011;59030;52.052;8.550;2022-08-19T13:56:40;4.20;;;3.30;;
71265;SDS011;59030;52.052;8.550;2022-08-19T13:59:08;3.57;;;3.27;;
71265;SDS011;59030;52.052;8.550;2022-08-19T14:01:35;4.40;;;3.45;;
71265;SDS011;59030;52.052;8.550;2022-08-19T14:04:04;3.73;;;3.30;;
71265;SDS011;59030;52.052;8.550;2022-08-19T14:06:32;4.90;;;3.40;;
71265;SDS011;59030;52.052;8.550;2022-08-19T14:08:59;3.40;;;3.20;;
71265;SDS011;59030;52.052;8.550;2022-08-19T14:11:28;3.80;;;3.20;;
71265;SDS011;59030;52.052;8.550;2022-08-19T14:13:55;3.55;;;3.27;;
71265;SDS011;59030;52.052;8.550;2022-08-19T14:16:23;4.03;;;3.60;;
71265;SDS011;59030;52.052;8.550;2022-08-19T14:18:51;3.52;;;3.22;;
71265;SDS011;59030;52.052;8.550;2022-08-19T14:21:20;3.58;;;3.05;;
71265;SDS011;59030;52.052;8.550;2022-08-19T14:23:49;3.60;;;3.30;;
71265;SDS011;59030;52.052;8.550;2022-08-19T14:26:17;5.10;;;3.50;;
71265;SDS011;59030;52.052;8.550;2022-08-19T14:28:45;3.77;;;3.17;;
71265;SDS011;59030;52.052;8.550;2022-08-19T14:31:12;3.70;;;3.40;;
71265;SDS011;59030;52.052;8.550;2022-08-19T14:33:42;3.65;;;3.35;;
71265;SDS011;59030;52.052;8.550;2022-08-19T14:36:12;4.05;;;3.10;;
71265;SDS011;59030;52.052;8.550;2022-08-19T14:38:40;3.62;;;3.30;;
71265;SDS011;59030;52.052;8.550;2022-08-19T14:41:09;3.67;;;3.22;;
71265;SDS011;59030;52.052;8.550;2022-08-19T14:43:37;3.42;;;3.12;;
71265;SDS011;59030;52.052;8.550;2022-08-19T14:46:05;3.33;;;3.02;;
71265;SDS011;59030;52.052;8.550;2022-08-19T14:48:34;3.47;;;3.17;;